createdAt,value
2024-01-04T00:00:01.616Z,6.70
2024-01-04T00:02:37.513Z,7.00
2024-01-04T00:05:09.090Z,7.10
2024-01-04T00:07:43.272Z,6.90
2024-01-04T00:10:15.549Z,6.90
2024-01-04T00:12:46.589Z,6.90
2024-01-04T00:15:16.770Z,6.80
2024-01-04T00:17:47.284Z,6.70
2024-01-04T00:20:18.788Z,6.70
2024-01-04T00:22:51.048Z,6.90
2024-01-04T00:25:21.191Z,7.10
2024-01-04T00:27:51.022Z,7.20
2024-01-04T00:30:21.429Z,7.10
2024-01-04T00:32:51.201Z,7.20
2024-01-04T00:35:21.062Z,7.10
2024-01-04T00:37:52.597Z,7.00
2024-01-04T00:40:23.215Z,7.00
2024-01-04T00:42:53.289Z,6.90
2024-01-04T00:45:23.156Z,6.80
2024-01-04T00:47:52.796Z,6.90
2024-01-04T00:50:22.876Z,6.90
2024-01-04T00:53:03.146Z,7.00
2024-01-04T00:55:36.248Z,7.00
2024-01-04T00:58:07.035Z,7.00
2024-01-04T01:00:36.906Z,7.30
2024-01-04T01:03:08.286Z,7.10
2024-01-04T01:05:39.208Z,7.20
2024-01-04T01:08:11.831Z,7.20
2024-01-04T01:10:41.751Z,7.40
2024-01-04T01:13:11.548Z,7.30
2024-01-04T01:15:41.784Z,7.20
2024-01-04T01:18:13.089Z,7.30
2024-01-04T01:20:44.041Z,7.40
2024-01-04T01:23:15.512Z,7.40
2024-01-04T01:25:45.936Z,7.30
2024-01-04T01:28:17.093Z,7.10
2024-01-04T01:30:48.639Z,7.00
2024-01-04T01:33:18.693Z,6.70
2024-01-04T01:35:48.775Z,6.70
2024-01-04T01:38:19.800Z,6.80
2024-01-04T01:40:50.946Z,6.80
2024-01-04T01:43:21.291Z,6.80
2024-01-04T01:45:51.022Z,6.90
2024-01-04T01:48:20.992Z,6.90
2024-01-04T01:50:51.249Z,6.70
2024-01-04T01:53:23.403Z,6.70
2024-01-04T01:55:53.709Z,6.70
2024-01-04T01:58:24.586Z,6.50
2024-01-04T02:00:56.412Z,6.40
2024-01-04T02:03:26.507Z,6.10
2024-01-04T02:05:56.754Z,6.10
2024-01-04T02:08:29.673Z,6.00
2024-01-04T02:11:01.304Z,6.30
2024-01-04T02:13:31.721Z,6.30
2024-01-04T02:16:02.320Z,6.40
2024-01-04T02:18:33.637Z,6.40
2024-01-04T02:21:04.246Z,6.20
2024-01-04T02:23:36.150Z,6.40
2024-01-04T02:26:06.096Z,6.20
2024-01-04T02:28:36.795Z,6.20
2024-01-04T02:31:06.384Z,6.30
2024-01-04T02:33:36.706Z,6.20
2024-01-04T02:36:08.132Z,6.20
2024-01-04T02:38:40.020Z,6.20
2024-01-04T02:41:10.910Z,6.30
2024-01-04T02:48:41.076Z,6.20
2024-01-04T02:51:11.690Z,6.30
2024-01-04T02:53:43.053Z,6.30
2024-01-04T02:56:13.075Z,6.20
2024-01-04T02:58:46.566Z,6.20
2024-01-04T03:01:22.290Z,6.20
2024-01-04T03:03:53.923Z,6.00
2024-01-04T03:06:25.637Z,6.00
2024-01-04T03:08:58.178Z,5.90
2024-01-04T03:11:28.741Z,6.00
2024-01-04T03:16:28.378Z,5.90
2024-01-04T03:18:58.189Z,5.80
2024-01-04T03:21:28.206Z,5.80
2024-01-04T03:23:59.475Z,5.70
2024-01-04T03:26:29.578Z,5.70
2024-01-04T03:28:59.999Z,5.70
2024-01-04T03:31:29.713Z,5.80
2024-01-04T03:33:59.529Z,5.70
2024-01-04T03:36:29.218Z,5.60
2024-01-04T03:39:00.628Z,5.70
2024-01-04T03:41:30.493Z,5.70
2024-01-04T03:44:00.011Z,5.80
2024-01-04T03:46:29.603Z,5.90
2024-01-04T03:49:00.028Z,6.00
2024-01-04T03:51:29.746Z,6.10
2024-01-04T03:54:01.749Z,6.20
2024-01-04T03:56:32.430Z,6.00
2024-01-04T03:59:02.949Z,6.00
2024-01-04T04:01:32.860Z,5.70
2024-01-04T04:04:02.645Z,5.80
2024-01-04T04:06:33.752Z,5.80
2024-01-04T04:09:06.273Z,5.80
2024-01-04T04:11:37.750Z,5.80
2024-01-04T04:14:10.893Z,5.80
2024-01-04T04:16:43.590Z,5.90
2024-01-04T04:19:13.726Z,6.00
2024-01-04T04:21:43.907Z,5.80
2024-01-04T04:24:15.574Z,5.90
2024-01-04T04:26:45.897Z,5.90
2024-01-04T04:29:16.319Z,6.00
2024-01-04T04:31:46.737Z,5.90
2024-01-04T04:34:17.136Z,5.80
2024-01-04T04:36:46.737Z,5.90
2024-01-04T04:39:18.569Z,5.90
2024-01-04T04:41:48.580Z,6.00
2024-01-04T04:44:18.379Z,6.00
2024-01-04T04:46:47.938Z,6.00
2024-01-04T04:49:17.800Z,6.00
2024-01-04T04:51:50.801Z,6.00
2024-01-04T04:54:22.186Z,5.90
2024-01-04T04:56:52.268Z,5.90
2024-01-04T04:59:22.259Z,5.80
2024-01-04T05:01:51.858Z,5.80
2024-01-04T05:04:22.932Z,5.70
2024-01-04T05:06:53.066Z,5.90
2024-01-04T05:09:24.372Z,5.80
2024-01-04T05:11:55.373Z,5.70
2024-01-04T05:14:25.210Z,5.70
2024-01-04T05:16:56.398Z,5.70
2024-01-04T05:19:26.554Z,5.60
2024-01-04T05:21:56.556Z,5.80
2024-01-04T05:24:28.382Z,5.80
2024-01-04T05:26:58.416Z,5.70
2024-01-04T05:29:29.322Z,5.50
2024-01-04T05:31:59.353Z,5.30
2024-01-04T05:34:30.986Z,5.60
2024-01-04T05:37:01.169Z,5.40
2024-01-04T05:39:32.569Z,5.30
2024-01-04T05:42:02.713Z,5.30
2024-01-04T05:44:32.901Z,5.40
2024-01-04T05:47:02.619Z,5.30
2024-01-04T05:49:32.298Z,5.30
2024-01-04T05:52:02.446Z,5.30
2024-01-04T05:54:34.618Z,5.20
2024-01-04T05:57:04.450Z,5.20
2024-01-04T05:59:34.186Z,5.10
2024-01-04T06:02:03.632Z,5.30
2024-01-04T06:04:33.350Z,5.20
2024-01-04T06:07:03.452Z,5.30
2024-01-04T06:09:34.815Z,5.20
2024-01-04T06:12:04.967Z,5.40
2024-01-04T06:14:35.094Z,5.20
2024-01-04T06:17:05.372Z,5.40
2024-01-04T06:19:35.194Z,5.40
2024-01-04T06:22:04.891Z,5.30
2024-01-04T06:24:36.959Z,5.40
2024-01-04T06:27:07.147Z,5.40
2024-01-04T06:29:38.072Z,5.50
2024-01-04T06:32:09.517Z,5.30
2024-01-04T06:34:40.069Z,5.30
2024-01-04T06:37:11.519Z,5.10
2024-01-04T06:39:51.495Z,5.10
2024-01-04T06:42:23.413Z,5.20
2024-01-04T06:44:53.853Z,5.20
2024-01-04T06:47:23.878Z,5.20
2024-01-04T06:50:03.466Z,5.10
2024-01-04T06:52:40.939Z,5.10
2024-01-04T06:55:16.377Z,5.30
2024-01-04T06:57:46.297Z,5.10
2024-01-04T07:00:16.984Z,5.30
2024-01-04T07:02:47.515Z,5.20
2024-01-04T07:05:17.246Z,5.40
2024-01-04T07:07:47.174Z,5.40
2024-01-04T07:10:19.559Z,5.50
2024-01-04T07:12:50.496Z,5.50
2024-01-04T07:15:20.328Z,5.60
2024-01-04T07:17:50.464Z,5.10
2024-01-04T07:20:23.612Z,5.70
2024-01-04T07:22:55.057Z,5.70
2024-01-04T07:25:27.183Z,5.30
2024-01-04T07:27:57.042Z,5.40
2024-01-04T07:30:26.701Z,5.40
2024-01-04T07:32:56.913Z,5.40
2024-01-04T07:35:26.984Z,5.40
2024-01-04T07:37:56.935Z,5.40
2024-01-04T07:40:28.033Z,5.60
2024-01-04T07:42:57.576Z,5.70
2024-01-04T07:45:27.599Z,5.60
2024-01-04T07:47:57.440Z,5.50
2024-01-04T07:50:28.635Z,5.60
2024-01-04T07:52:58.432Z,5.70
2024-01-04T07:55:30.058Z,5.80
2024-01-04T07:57:59.713Z,5.80
2024-01-04T08:00:29.473Z,5.90
2024-01-04T08:02:59.249Z,5.90
2024-01-04T08:05:28.736Z,5.80
2024-01-04T08:07:58.635Z,5.70
2024-01-04T08:10:29.891Z,5.60
2024-01-04T08:13:01.133Z,5.50
2024-01-04T08:15:35.090Z,5.60
2024-01-04T08:18:07.528Z,5.90
2024-01-04T08:20:38.077Z,5.90
2024-01-04T08:23:08.178Z,6.10
2024-01-04T08:25:40.225Z,6.30
2024-01-04T08:28:11.375Z,6.30
2024-01-04T08:30:41.425Z,6.30
2024-01-04T08:33:11.848Z,6.40
2024-01-04T08:35:41.941Z,6.20
2024-01-04T08:38:12.241Z,6.40
2024-01-04T08:40:43.919Z,6.40
2024-01-04T08:43:16.786Z,6.80
2024-01-04T08:45:46.941Z,6.90
2024-01-04T08:48:17.710Z,7.00
2024-01-04T08:50:47.997Z,7.20
2024-01-04T08:53:22.172Z,7.00
2024-01-04T08:55:53.976Z,6.90
2024-01-04T08:58:23.546Z,7.10
2024-01-04T09:00:54.246Z,7.40
2024-01-04T09:03:24.561Z,7.50
2024-01-04T09:05:54.845Z,7.50
2024-01-04T09:08:25.235Z,7.70
2024-01-04T09:10:56.589Z,7.70
2024-01-04T09:13:27.032Z,7.90
2024-01-04T09:15:57.263Z,8.10
2024-01-04T09:18:27.618Z,8.00
2024-01-04T09:20:57.388Z,8.00
2024-01-04T09:23:26.907Z,8.10
2024-01-04T09:25:58.757Z,8.10
2024-01-04T09:28:29.578Z,8.20
2024-01-04T09:30:59.577Z,8.40
2024-01-04T09:33:30.153Z,8.50
2024-01-04T09:36:00.503Z,8.60
2024-01-04T09:38:30.584Z,8.80
2024-01-04T09:41:15.653Z,8.80
2024-01-04T09:43:46.063Z,8.70
2024-01-04T09:46:23.176Z,8.90
2024-01-04T09:48:59.919Z,8.90
2024-01-04T09:51:32.161Z,8.90
2024-01-04T09:54:02.432Z,8.90
2024-01-04T09:56:34.680Z,8.80
2024-01-04T09:59:04.386Z,8.60
2024-01-04T10:01:37.996Z,9.00
2024-01-04T10:04:11.949Z,8.90
2024-01-04T10:06:43.247Z,8.70
2024-01-04T10:09:22.637Z,9.20
2024-01-04T10:12:04.378Z,9.50
2024-01-04T10:14:35.526Z,9.40
2024-01-04T10:17:06.224Z,9.30
2024-01-04T10:19:37.484Z,9.10
2024-01-04T10:22:10.277Z,8.80
2024-01-04T10:24:43.178Z,8.60
2024-01-04T10:27:18.510Z,9.20
2024-01-04T10:29:53.060Z,9.00
2024-01-04T10:32:23.295Z,9.20
2024-01-04T10:34:52.804Z,8.90
2024-01-04T10:37:23.927Z,9.10
2024-01-04T10:39:59.535Z,9.20
2024-01-04T10:42:31.046Z,9.50
2024-01-04T10:45:02.864Z,10.00
2024-01-04T10:47:32.712Z,10.10
2024-01-04T10:50:05.043Z,10.20
2024-01-04T10:52:35.665Z,9.90
2024-01-04T10:55:07.626Z,10.40
2024-01-04T10:57:40.716Z,10.60
2024-01-04T11:00:13.050Z,10.70
2024-01-04T11:02:43.762Z,11.10
2024-01-04T11:05:14.679Z,11.10
2024-01-04T11:07:46.518Z,11.20
2024-01-04T11:10:17.755Z,11.10
2024-01-04T11:12:50.897Z,11.50
2024-01-04T11:15:21.920Z,11.90
2024-01-04T11:18:06.532Z,12.00
2024-01-04T11:20:52.461Z,12.10
2024-01-04T11:23:40.056Z,11.70
2024-01-04T11:26:29.129Z,10.70
2024-01-04T11:29:08.258Z,11.00
2024-01-04T11:31:46.042Z,10.20
2024-01-04T11:34:19.533Z,9.20
2024-01-04T11:36:50.705Z,8.50
2024-01-04T11:39:29.156Z,8.20
2024-01-04T11:41:58.869Z,7.90
2024-01-04T11:44:38.671Z,7.80
2024-01-04T11:47:15.776Z,7.90
2024-01-04T11:49:56.213Z,7.40
2024-01-04T11:52:32.686Z,7.30
2024-01-04T11:55:02.705Z,7.60
2024-01-04T11:57:33.692Z,7.40
2024-01-04T12:00:15.623Z,7.50
2024-01-04T12:02:45.782Z,7.50
2024-01-04T12:05:21.485Z,7.40
2024-01-04T12:07:51.227Z,7.30
2024-01-04T12:10:22.070Z,7.40
2024-01-04T12:15:24.723Z,7.60
2024-01-04T12:17:55.199Z,7.90
2024-01-04T12:20:25.398Z,8.80
2024-01-04T12:22:54.978Z,9.50
2024-01-04T12:25:24.910Z,10.40
2024-01-04T12:27:54.945Z,10.70
2024-01-04T12:30:27.639Z,10.50
2024-01-04T12:32:59.213Z,10.70
2024-01-04T12:35:29.425Z,11.30
2024-01-04T12:38:02.970Z,11.00
2024-01-04T12:40:42.831Z,11.40
2024-01-04T12:43:14.492Z,11.80
2024-01-04T12:45:45.541Z,11.70
2024-01-04T12:48:15.902Z,12.40
2024-01-04T12:50:46.199Z,12.10
2024-01-04T12:53:16.801Z,12.70
2024-01-04T12:55:47.960Z,13.00
2024-01-04T12:58:17.967Z,13.20
2024-01-04T13:00:50.517Z,13.10
2024-01-04T13:03:20.318Z,13.00
2024-01-04T13:05:50.339Z,13.30
2024-01-04T13:08:20.590Z,13.00
2024-01-04T13:10:58.842Z,13.20
2024-01-04T13:13:32.971Z,13.30
2024-01-04T13:16:05.088Z,13.10
2024-01-04T13:18:35.251Z,13.10
2024-01-04T13:21:05.622Z,13.20
2024-01-04T13:23:36.044Z,13.50
2024-01-04T13:26:06.525Z,13.20
2024-01-04T13:28:36.388Z,12.90
2024-01-04T13:31:08.899Z,13.00
2024-01-04T13:33:40.323Z,13.40
2024-01-04T13:36:10.550Z,13.10
2024-01-04T13:38:41.249Z,12.40
2024-01-04T13:41:11.094Z,13.00
2024-01-04T13:43:41.311Z,13.60
2024-01-04T15:39:43.522Z,10.10
2024-01-04T15:42:13.664Z,9.90
2024-01-04T15:44:43.527Z,9.80
2024-01-04T15:47:15.306Z,9.90
2024-01-04T15:49:45.255Z,9.90
2024-01-04T15:52:15.529Z,9.80
2024-01-04T15:54:45.371Z,9.80
2024-01-04T15:57:15.047Z,9.60
2024-01-04T15:59:45.430Z,9.60
2024-01-04T16:02:16.877Z,9.70
2024-01-04T16:04:46.949Z,9.50
2024-01-04T16:07:16.805Z,9.40
2024-01-04T16:09:46.582Z,9.30
2024-01-04T16:12:16.480Z,9.20
2024-01-04T16:14:48.309Z,9.10
2024-01-04T16:17:20.516Z,8.80
2024-01-04T16:19:50.796Z,8.80
2024-01-04T16:22:20.278Z,8.90
2024-01-04T16:24:50.679Z,9.00
2024-01-04T16:27:21.933Z,8.80
2024-01-04T16:29:52.355Z,8.70
2024-01-04T16:32:23.486Z,8.60
2024-01-04T16:34:54.154Z,8.50
2024-01-04T16:37:24.202Z,8.60
2024-01-04T16:39:55.208Z,8.80
2024-01-04T16:42:25.106Z,8.80
2024-01-04T16:44:55.457Z,8.80
2024-01-04T16:47:26.551Z,8.80
2024-01-04T16:49:58.036Z,8.60
2024-01-04T16:52:28.123Z,8.60
2024-01-04T16:54:58.447Z,8.60
2024-01-04T16:57:29.745Z,8.60
2024-01-04T16:59:59.693Z,8.70
2024-01-04T17:02:31.273Z,8.80
2024-01-04T17:05:01.629Z,8.90
2024-01-04T17:07:31.296Z,8.90
2024-01-04T17:10:01.511Z,9.10
2024-01-04T17:12:31.481Z,8.80
2024-01-04T17:15:01.659Z,8.50
2024-01-04T17:17:33.567Z,8.90
2024-01-04T17:20:03.876Z,8.90
2024-01-04T17:22:34.272Z,8.90
2024-01-04T17:25:05.104Z,8.90
2024-01-04T17:27:35.152Z,9.00
2024-01-04T17:30:05.468Z,9.00
2024-01-04T17:32:37.782Z,8.80
2024-01-04T17:40:23.714Z,9.50
2024-01-04T17:43:00.517Z,9.10
2024-01-04T17:45:30.399Z,9.30
2024-01-04T17:48:01.620Z,9.10
2024-01-04T17:50:31.379Z,9.10
2024-01-04T17:53:01.508Z,9.30
2024-01-04T17:55:32.323Z,9.30
2024-01-04T17:58:02.043Z,9.10
2024-01-04T18:00:31.568Z,9.10
2024-01-04T18:03:02.969Z,9.10
2024-01-04T18:05:33.050Z,8.90
2024-01-04T18:08:03.039Z,8.90
2024-01-04T18:10:33.557Z,9.10
2024-01-04T18:13:04.429Z,9.20
2024-01-04T18:15:34.901Z,9.10
2024-01-04T18:18:07.387Z,9.10
2024-01-04T18:20:39.463Z,9.10
2024-01-04T18:23:09.483Z,9.00
2024-01-04T18:25:40.385Z,9.10
2024-01-04T18:28:10.639Z,9.10
2024-01-04T18:30:40.496Z,9.00
2024-01-04T18:33:12.161Z,9.10
2024-01-04T18:35:44.815Z,9.00
2024-01-04T18:38:14.628Z,8.90
2024-01-04T18:40:45.023Z,8.90
2024-01-04T18:43:14.830Z,8.90
2024-01-04T18:45:44.538Z,8.90
2024-01-04T18:48:15.877Z,8.90
2024-01-04T18:50:46.039Z,9.00
2024-01-04T18:53:16.745Z,9.10
2024-01-04T18:55:46.863Z,9.00
2024-01-04T18:58:16.951Z,8.90
2024-01-04T19:00:46.470Z,8.60
2024-01-04T19:03:18.274Z,8.50
2024-01-04T19:05:48.465Z,8.60
2024-01-04T19:08:18.967Z,8.60
2024-01-04T19:10:48.911Z,8.60
2024-01-04T19:13:18.867Z,8.70
2024-01-04T19:15:57.057Z,8.60
2024-01-04T19:18:32.065Z,8.60
2024-01-04T19:21:02.418Z,8.80
2024-01-04T19:23:32.509Z,8.70
2024-01-04T19:26:02.618Z,8.60
2024-01-04T19:28:32.898Z,8.90
2024-01-04T19:31:02.716Z,9.00
2024-01-04T19:33:35.256Z,9.20
2024-01-04T19:36:06.109Z,8.80
2024-01-04T19:38:35.926Z,8.60
2024-01-04T19:41:05.484Z,8.80
2024-01-04T19:43:36.329Z,8.90
2024-01-04T19:46:10.966Z,9.10
2024-01-04T19:48:44.377Z,9.10
2024-01-04T19:51:14.484Z,8.90
2024-01-04T19:53:45.341Z,8.90
2024-01-04T19:56:16.954Z,8.90
2024-01-04T19:58:47.932Z,8.80
2024-01-04T20:01:19.701Z,8.90
2024-01-04T20:03:52.613Z,9.00
2024-01-04T20:06:24.008Z,9.00
2024-01-04T20:08:54.123Z,9.00
2024-01-04T20:11:25.653Z,9.10
2024-01-04T20:13:56.607Z,9.00
2024-01-04T20:16:27.365Z,8.90
2024-01-04T20:18:59.271Z,8.70
2024-01-04T20:21:30.001Z,8.80
2024-01-04T20:23:59.874Z,8.90
2024-01-04T20:26:29.957Z,8.80
2024-01-04T20:29:02.920Z,9.00
2024-01-04T20:31:35.154Z,9.00
2024-01-04T20:34:06.800Z,8.90
2024-01-04T20:36:37.374Z,8.80
2024-01-04T20:39:08.188Z,8.90
2024-01-04T20:41:39.185Z,8.90
2024-01-04T20:44:09.386Z,8.80
2024-01-04T20:46:40.982Z,9.00
2024-01-04T20:49:12.848Z,9.00
2024-01-04T20:51:47.712Z,8.90
2024-01-04T20:54:20.359Z,9.00
2024-01-04T20:56:53.092Z,9.00
2024-01-04T20:59:26.186Z,8.90
2024-01-04T21:01:56.630Z,8.90
2024-01-04T21:04:31.193Z,8.90
2024-01-04T21:07:01.897Z,9.00
2024-01-04T21:09:33.007Z,9.00
2024-01-04T21:12:05.706Z,9.00
2024-01-04T21:14:36.235Z,8.80
2024-01-04T21:17:06.047Z,8.80
2024-01-04T21:19:38.080Z,8.90
2024-01-04T21:22:08.843Z,8.90
2024-01-04T21:24:38.787Z,9.10
2024-01-04T21:27:08.713Z,8.90
2024-01-04T21:29:38.906Z,8.80
2024-01-04T21:32:09.007Z,8.90
2024-01-04T21:34:40.575Z,8.90
2024-01-04T21:37:10.574Z,8.80
2024-01-04T21:39:41.718Z,8.60
2024-01-04T21:42:13.912Z,8.70
2024-01-04T21:44:43.682Z,8.60
2024-01-04T21:47:13.603Z,8.60
2024-01-04T21:49:45.625Z,8.60
2024-01-04T21:52:15.773Z,8.70
2024-01-04T21:54:48.210Z,8.60
2024-01-04T21:57:19.679Z,8.70
2024-01-04T21:59:49.353Z,8.70
2024-01-04T22:02:21.204Z,8.50
2024-01-04T22:04:52.961Z,8.50
2024-01-04T22:07:23.344Z,8.60
2024-01-04T22:09:53.161Z,8.70
2024-01-04T22:12:22.694Z,8.60
2024-01-04T22:14:52.647Z,8.80
2024-01-04T22:17:24.331Z,8.80
2024-01-04T22:19:55.568Z,8.70
2024-01-04T22:22:25.919Z,8.50
2024-01-04T22:24:56.444Z,8.50
2024-01-04T22:27:26.385Z,8.60
2024-01-04T22:29:57.334Z,8.50
2024-01-04T22:32:27.519Z,8.40
2024-01-04T22:35:02.171Z,8.50
2024-01-04T22:37:32.887Z,8.40
2024-01-04T22:40:02.565Z,8.40
2024-01-04T22:42:32.297Z,8.30
2024-01-04T22:45:02.407Z,8.50
2024-01-04T22:47:32.561Z,8.50
2024-01-04T22:50:04.892Z,8.50
2024-01-04T22:52:35.115Z,8.60
2024-01-04T22:55:05.553Z,8.40
2024-01-04T22:57:35.379Z,8.50
2024-01-04T23:00:05.741Z,8.40
2024-01-04T23:02:36.114Z,8.60
2024-01-04T23:05:07.807Z,8.50
2024-01-04T23:07:38.543Z,8.60
2024-01-04T23:10:08.714Z,8.50
2024-01-04T23:12:38.448Z,8.40
2024-01-04T23:15:08.870Z,8.40
2024-01-04T23:17:39.212Z,8.30
2024-01-04T23:20:11.662Z,8.30
2024-01-04T23:22:41.781Z,8.20
2024-01-04T23:25:13.533Z,8.00
2024-01-04T23:27:43.064Z,8.10
2024-01-04T23:30:14.139Z,8.10
2024-01-04T23:32:44.325Z,8.20
2024-01-04T23:35:15.939Z,8.30
2024-01-04T23:37:46.176Z,8.20
2024-01-04T23:40:15.996Z,8.20
2024-01-04T23:42:45.680Z,8.30
2024-01-04T23:45:15.791Z,8.50
2024-01-04T23:47:46.149Z,8.50
2024-01-04T23:50:17.995Z,8.60
2024-01-04T23:52:47.907Z,8.10
2024-01-04T23:55:18.026Z,8.20
2024-01-04T23:57:47.649Z,8.20
